createdAt,value
2022-08-27T00:00:00.704Z,20.2
2022-08-27T00:03:00.640Z,20.2
2022-08-27T00:06:00.638Z,20.2
2022-08-27T00:09:00.754Z,20.2
2022-08-27T00:12:00.662Z,20.2
2022-08-27T00:15:00.630Z,20.2
2022-08-27T00:18:00.644Z,20.2
2022-08-27T00:21:00.663Z,20.2
2022-08-27T00:24:00.623Z,20.2
2022-08-27T00:27:00.638Z,20.2
2022-08-27T00:30:00.702Z,20.2
2022-08-27T00:33:00.674Z,20.2
2022-08-27T00:36:00.636Z,20.2
2022-08-27T00:39:00.701Z,20.2
2022-08-27T00:42:00.647Z,20.2
2022-08-27T00:45:00.610Z,20.2
2022-08-27T00:48:00.675Z,20.2
2022-08-27T00:51:00.633Z,20.2
2022-08-27T00:54:00.691Z,20.2
2022-08-27T00:57:00.618Z,20.2
2022-08-27T01:00:00.650Z,20.2
2022-08-27T01:03:00.757Z,20.2
2022-08-27T01:06:00.761Z,20.2
2022-08-27T01:09:00.705Z,20.2
2022-08-27T01:12:00.646Z,20.2
2022-08-27T01:15:00.637Z,20.2
2022-08-27T01:18:00.699Z,20.2
2022-08-27T01:21:00.699Z,20.2
2022-08-27T01:24:00.688Z,20.2
2022-08-27T01:27:00.618Z,20.2
2022-08-27T01:30:00.686Z,20.2
2022-08-27T01:33:00.642Z,20.2
2022-08-27T01:36:00.670Z,20.2
2022-08-27T01:39:00.720Z,20.2
2022-08-27T01:42:00.683Z,20.2
2022-08-27T01:45:00.683Z,20.2
2022-08-27T01:48:00.654Z,20.2
2022-08-27T01:51:00.676Z,20.2
2022-08-27T01:54:00.817Z,20.2
2022-08-27T01:57:00.618Z,20.1
2022-08-27T02:00:00.656Z,20.1
2022-08-27T02:03:00.703Z,20.1
2022-08-27T02:06:00.673Z,20.1
2022-08-27T02:09:00.644Z,20.1
2022-08-27T02:12:00.755Z,20.1
2022-08-27T02:15:00.722Z,20.1
2022-08-27T02:18:00.722Z,20.1
2022-08-27T02:21:00.651Z,20.1
2022-08-27T02:24:00.631Z,20.1
2022-08-27T02:27:00.632Z,20.1
2022-08-27T02:30:00.681Z,20.1
2022-08-27T02:33:00.644Z,20.1
2022-08-27T02:36:00.653Z,20.1
2022-08-27T02:39:00.675Z,20.1
2022-08-27T02:42:00.687Z,20.1
2022-08-27T02:45:00.743Z,20.1
2022-08-27T02:48:00.638Z,20.1
2022-08-27T02:51:00.667Z,20.1
2022-08-27T02:54:00.646Z,19.8
2022-08-27T02:57:00.667Z,19.8
2022-08-27T03:00:00.669Z,19.8
2022-08-27T03:03:00.834Z,19.8
2022-08-27T03:06:00.596Z,19.8
2022-08-27T03:09:00.665Z,19.8
2022-08-27T03:12:00.675Z,19.8
2022-08-27T03:15:00.691Z,19.8
2022-08-27T03:18:00.709Z,19.8
2022-08-27T03:21:00.642Z,19.8
2022-08-27T03:24:00.657Z,19.8
2022-08-27T03:27:00.647Z,19.8
2022-08-27T03:30:04.145Z,19.8
2022-08-27T03:33:00.651Z,19.8
2022-08-27T03:36:00.641Z,19.8
2022-08-27T03:39:01.331Z,19.8
2022-08-27T03:42:00.653Z,19.8
2022-08-27T03:45:00.626Z,19.8
2022-08-27T03:48:00.632Z,19.8
2022-08-27T03:51:00.681Z,19.8
2022-08-27T03:54:00.663Z,19.8
2022-08-27T03:57:00.649Z,19.5
2022-08-27T04:00:00.749Z,19.5
2022-08-27T04:03:00.712Z,19.5
2022-08-27T04:06:00.727Z,19.5
2022-08-27T04:09:00.663Z,19.5
2022-08-27T04:12:00.656Z,19.5
2022-08-27T04:15:00.604Z,19.5
2022-08-27T04:18:00.632Z,19.5
2022-08-27T04:21:00.619Z,19.5
2022-08-27T04:24:00.693Z,19.5
2022-08-27T04:27:00.639Z,19.5
2022-08-27T04:30:00.673Z,19.5
2022-08-27T04:33:00.654Z,19.5
2022-08-27T04:36:00.662Z,19.5
2022-08-27T04:39:00.604Z,19.5
2022-08-27T04:42:00.688Z,19.5
2022-08-27T04:45:00.643Z,19.5
2022-08-27T04:48:00.677Z,19.5
2022-08-27T04:51:00.684Z,19.5
2022-08-27T04:54:01.235Z,19.3
2022-08-27T04:57:00.701Z,19.3
2022-08-27T05:00:00.662Z,19.3
2022-08-27T05:03:00.628Z,19.3
2022-08-27T05:06:00.703Z,19.3
2022-08-27T05:09:00.759Z,19.3
2022-08-27T05:12:00.653Z,19.3
2022-08-27T05:15:00.636Z,19.3
2022-08-27T05:18:00.700Z,19.3
2022-08-27T05:21:00.671Z,19.3
2022-08-27T05:24:00.644Z,19.3
2022-08-27T05:27:00.666Z,19.3
2022-08-27T05:30:00.966Z,19.3
2022-08-27T05:33:00.626Z,19.3
2022-08-27T05:36:00.667Z,19.3
2022-08-27T05:39:00.617Z,19.3
2022-08-27T05:42:00.742Z,19.3
2022-08-27T05:45:00.626Z,19.3
2022-08-27T05:48:00.855Z,19.3
2022-08-27T05:51:00.611Z,19.3
2022-08-27T05:54:00.673Z,19.3
2022-08-27T05:57:00.672Z,19.3
2022-08-27T06:00:00.736Z,19.3
2022-08-27T06:03:00.725Z,19.3
2022-08-27T06:06:00.633Z,19.3
2022-08-27T06:09:00.690Z,19.3
2022-08-27T06:12:00.665Z,19.3
2022-08-27T06:15:00.628Z,19.3
2022-08-27T06:18:00.673Z,19.3
2022-08-27T06:21:00.649Z,19.3
2022-08-27T06:24:00.696Z,19.3
2022-08-27T06:27:00.615Z,19.3
2022-08-27T06:30:00.767Z,19.3
2022-08-27T06:33:00.628Z,19.3
2022-08-27T06:36:00.691Z,19.3
2022-08-27T06:39:00.708Z,19.3
2022-08-27T06:42:00.667Z,19.3
2022-08-27T06:45:00.633Z,19
2022-08-27T06:48:00.672Z,19
2022-08-27T06:51:00.717Z,19
2022-08-27T06:54:00.743Z,19
2022-08-27T06:57:00.748Z,19
2022-08-27T07:00:00.751Z,19
2022-08-27T07:03:00.675Z,19
2022-08-27T07:06:00.651Z,19
2022-08-27T07:09:00.722Z,19
2022-08-27T07:12:00.626Z,19
2022-08-27T07:15:00.686Z,19
2022-08-27T07:18:00.690Z,19
2022-08-27T07:21:00.673Z,19
2022-08-27T07:24:00.633Z,19
2022-08-27T07:27:00.690Z,19
2022-08-27T07:30:01.891Z,19.1
2022-08-27T07:33:00.674Z,19.1
2022-08-27T07:36:00.625Z,19.1
2022-08-27T07:39:02.043Z,19.1
2022-08-27T07:42:00.693Z,19.1
2022-08-27T07:45:00.688Z,19.3
2022-08-27T07:48:00.687Z,19.3
2022-08-27T07:51:00.737Z,19.3
2022-08-27T07:54:00.615Z,19.3
2022-08-27T07:57:00.691Z,19.3
2022-08-27T08:00:00.638Z,19.3
2022-08-27T08:03:00.654Z,19.3
2022-08-27T08:06:00.675Z,19.3
2022-08-27T08:09:00.648Z,19.3
2022-08-27T08:12:00.691Z,19.3
2022-08-27T08:15:00.713Z,19.3
2022-08-27T08:18:00.679Z,19.3
2022-08-27T08:21:00.786Z,19.3
2022-08-27T08:24:00.708Z,19.3
2022-08-27T08:27:07.318Z,19.4
2022-08-27T08:30:00.727Z,19.4
2022-08-27T08:33:00.643Z,19.4
2022-08-27T08:36:00.666Z,19.4
2022-08-27T08:39:00.662Z,19.4
2022-08-27T08:42:00.676Z,19.4
2022-08-27T08:45:00.648Z,19.4
2022-08-27T08:48:00.788Z,19.4
2022-08-27T08:51:00.728Z,19.4
2022-08-27T08:54:00.666Z,19.4
2022-08-27T08:57:00.752Z,19.4
2022-08-27T09:00:00.710Z,19.4
2022-08-27T09:03:00.631Z,19.4
2022-08-27T09:06:00.661Z,19.4
2022-08-27T09:09:00.623Z,19.4
2022-08-27T09:12:00.660Z,19.4
2022-08-27T09:15:00.687Z,19.4
2022-08-27T09:18:00.693Z,19.4
2022-08-27T09:21:00.827Z,19.4
2022-08-27T09:24:00.709Z,19.4
2022-08-27T09:27:00.677Z,19.4
2022-08-27T09:30:00.685Z,19.4
2022-08-27T09:33:00.669Z,19.5
2022-08-27T09:36:00.663Z,19.5
2022-08-27T09:39:00.670Z,19.5
2022-08-27T09:42:00.650Z,19.5
2022-08-27T09:45:00.684Z,19.5
2022-08-27T09:48:00.644Z,19.5
2022-08-27T09:51:00.607Z,19.5
2022-08-27T09:54:00.691Z,19.5
2022-08-27T09:57:00.618Z,19.5
2022-08-27T10:00:00.705Z,19.5
2022-08-27T10:03:00.647Z,19.5
2022-08-27T10:06:00.647Z,19.5
2022-08-27T10:09:07.212Z,19.5
2022-08-27T10:12:00.671Z,19.5
2022-08-27T10:15:00.674Z,19.5
2022-08-27T10:18:01.455Z,19.5
2022-08-27T10:21:06.029Z,19.5
2022-08-27T10:24:00.673Z,19.5
2022-08-27T10:27:00.629Z,19.9
2022-08-27T10:30:00.730Z,19.9
2022-08-27T10:33:04.127Z,19.9
2022-08-27T10:36:00.645Z,19.9
2022-08-27T10:39:00.619Z,19.9
2022-08-27T10:42:00.740Z,19.9
2022-08-27T10:45:00.602Z,19.9
2022-08-27T10:48:01.430Z,19.9
2022-08-27T10:51:00.651Z,19.9
2022-08-27T10:54:00.650Z,19.9
2022-08-27T10:57:31.602Z,19.9
2022-08-27T11:00:00.733Z,19.9
2022-08-27T11:03:00.671Z,20
2022-08-27T11:06:00.605Z,20
2022-08-27T11:09:00.663Z,20
2022-08-27T11:12:15.569Z,20
2022-08-27T11:15:00.677Z,20
2022-08-27T11:18:00.661Z,20
2022-08-27T11:21:00.601Z,20
2022-08-27T11:24:00.664Z,19.9
2022-08-27T11:27:00.624Z,19.9
2022-08-27T11:30:00.860Z,19.9
2022-08-27T11:33:00.645Z,19.9
2022-08-27T11:36:00.692Z,19.9
2022-08-27T11:39:00.693Z,19.9
2022-08-27T11:42:00.694Z,19.9
2022-08-27T11:45:00.622Z,19.9
2022-08-27T11:48:00.704Z,19.9
2022-08-27T11:51:00.654Z,19.9
2022-08-27T11:54:00.666Z,19.8
2022-08-27T11:57:00.643Z,19.8
2022-08-27T12:00:00.709Z,19.8
2022-08-27T12:03:00.723Z,19.8
2022-08-27T12:06:00.681Z,19.8
2022-08-27T12:09:00.641Z,19.8
2022-08-27T12:12:00.761Z,19.8
2022-08-27T12:15:00.654Z,19.8
2022-08-27T12:18:00.678Z,19.8
2022-08-27T12:21:00.646Z,20.1
2022-08-27T12:24:00.611Z,20.1
2022-08-27T12:27:00.646Z,20.1
2022-08-27T12:30:00.658Z,20.1
2022-08-27T12:33:00.648Z,20.1
2022-08-27T12:36:00.666Z,20.1
2022-08-27T12:39:00.673Z,20.1
2022-08-27T12:42:00.638Z,20.1
2022-08-27T12:45:00.697Z,20.1
2022-08-27T12:48:00.633Z,20.1
2022-08-27T12:51:00.636Z,20.1
2022-08-27T12:54:00.681Z,20.1
2022-08-27T12:57:00.690Z,20.1
2022-08-27T13:00:00.706Z,20.3
2022-08-27T13:03:00.649Z,20.3
2022-08-27T13:06:00.666Z,20.3
2022-08-27T13:09:00.634Z,20.3
2022-08-27T13:12:00.786Z,20.4
2022-08-27T13:15:00.679Z,20.4
2022-08-27T13:18:02.586Z,20.4
2022-08-27T13:21:00.657Z,20.4
2022-08-27T13:24:00.667Z,20.4
2022-08-27T13:27:00.707Z,20.4
2022-08-27T13:30:00.693Z,20.4
2022-08-27T13:33:00.676Z,20.4
2022-08-27T13:36:00.673Z,20.4
2022-08-27T13:39:00.652Z,20.9
2022-08-27T13:42:00.653Z,20.9
2022-08-27T13:45:00.740Z,20.9
2022-08-27T13:48:00.670Z,20.9
2022-08-27T13:51:00.648Z,20.9
2022-08-27T13:54:00.664Z,20.9
2022-08-27T13:57:00.679Z,20.9
2022-08-27T14:00:00.694Z,20.9
2022-08-27T14:03:00.714Z,20.9
2022-08-27T14:06:00.689Z,21.1
2022-08-27T14:09:00.652Z,21.1
2022-08-27T14:12:00.674Z,21.1
2022-08-27T14:15:00.702Z,21.1
2022-08-27T14:18:00.772Z,21.1
2022-08-27T14:21:00.670Z,21.1
2022-08-27T14:24:00.653Z,21.1
2022-08-27T14:27:00.639Z,21.1
2022-08-27T14:30:00.860Z,21.1
2022-08-27T14:33:00.941Z,21.1
2022-08-27T14:36:00.675Z,21.1
2022-08-27T14:39:00.812Z,21.1
2022-08-27T14:42:00.618Z,21.1
2022-08-27T14:45:00.709Z,21.1
2022-08-27T14:48:02.600Z,21.4
2022-08-27T14:51:00.733Z,21.4
2022-08-27T14:54:00.667Z,21.4
2022-08-27T14:57:00.674Z,21.3
2022-08-27T15:00:00.871Z,21.3
2022-08-27T15:03:00.640Z,21.3
2022-08-27T15:06:00.647Z,21.3
2022-08-27T15:09:00.623Z,21.3
2022-08-27T15:12:00.649Z,21.3
2022-08-27T15:15:00.678Z,21.3
2022-08-27T15:18:00.663Z,21.3
2022-08-27T15:21:00.629Z,21.3
2022-08-27T15:24:00.784Z,21.3
2022-08-27T15:27:00.664Z,21.3
2022-08-27T15:30:00.724Z,21.3
2022-08-27T15:33:00.650Z,21.3
2022-08-27T15:36:04.204Z,21.3
2022-08-27T15:39:00.666Z,21.3
2022-08-27T15:42:07.193Z,21.3
2022-08-27T15:45:01.249Z,21.3
2022-08-27T15:48:00.699Z,21.3
2022-08-27T15:51:00.631Z,21.3
2022-08-27T15:54:00.676Z,21.6
2022-08-27T15:57:00.663Z,21.6
2022-08-27T16:00:00.701Z,21.6
2022-08-27T16:03:00.777Z,21.6
2022-08-27T16:06:00.653Z,21.6
2022-08-27T16:09:00.710Z,21.6
2022-08-27T16:12:00.668Z,21.6
2022-08-27T16:15:00.664Z,21.6
2022-08-27T16:18:00.668Z,21.6
2022-08-27T16:21:00.634Z,21.6
2022-08-27T16:24:00.621Z,21.6
2022-08-27T16:27:00.630Z,21.6
2022-08-27T16:30:00.773Z,21.6
2022-08-27T16:33:00.712Z,21.6
2022-08-27T16:36:00.685Z,21.6
2022-08-27T16:39:00.719Z,21.6
2022-08-27T16:42:00.741Z,21.6
2022-08-27T16:45:00.689Z,21.4
2022-08-27T16:48:00.666Z,21.4
2022-08-27T16:51:00.634Z,21.4
2022-08-27T16:54:00.668Z,21.4
2022-08-27T16:57:00.732Z,21.4
2022-08-27T17:00:00.643Z,21.4
2022-08-27T17:03:00.677Z,21.4
2022-08-27T17:06:00.690Z,21.4
2022-08-27T17:09:00.650Z,21.4
2022-08-27T17:12:00.740Z,21.4
2022-08-27T17:15:00.650Z,21.4
2022-08-27T17:18:00.681Z,21.4
2022-08-27T17:21:00.657Z,21.4
2022-08-27T17:24:00.645Z,21.4
2022-08-27T17:27:00.713Z,21.4
2022-08-27T17:30:00.759Z,21.4
2022-08-27T17:33:00.651Z,21.4
2022-08-27T17:36:00.697Z,21.4
2022-08-27T17:39:00.700Z,21.3
2022-08-27T17:42:00.795Z,21.3
2022-08-27T17:45:00.628Z,21.3
2022-08-27T17:48:00.752Z,21.2
2022-08-27T17:51:00.614Z,21.2
2022-08-27T17:54:01.717Z,21.2
2022-08-27T17:57:00.686Z,21.2
2022-08-27T18:00:05.332Z,21.2
2022-08-27T18:03:00.643Z,21.2
2022-08-27T18:06:00.663Z,21.2
2022-08-27T18:09:00.687Z,21.1
2022-08-27T18:12:00.698Z,21.1
2022-08-27T18:15:00.642Z,21.1
2022-08-27T18:18:00.683Z,21.1
2022-08-27T18:21:00.631Z,21.1
2022-08-27T18:24:00.655Z,21.1
2022-08-27T18:27:00.653Z,21.1
2022-08-27T18:30:00.632Z,21.1
2022-08-27T18:33:00.637Z,21.1
2022-08-27T18:36:00.637Z,21.1
2022-08-27T18:39:00.697Z,20.7
2022-08-27T18:42:00.696Z,20.7
2022-08-27T18:45:05.929Z,20.7
2022-08-27T18:48:00.674Z,20.7
2022-08-27T18:51:00.653Z,20.7
2022-08-27T18:54:00.731Z,20.7
2022-08-27T18:57:00.697Z,20.7
2022-08-27T19:00:00.653Z,20.7
2022-08-27T19:03:00.652Z,20.7
2022-08-27T19:06:00.909Z,20.7
2022-08-27T19:09:00.744Z,20.7
2022-08-27T19:12:00.721Z,20.7
2022-08-27T19:15:00.649Z,20.7
2022-08-27T19:18:00.683Z,20.7
2022-08-27T19:21:00.619Z,20.7
2022-08-27T19:24:00.662Z,20.7
2022-08-27T19:27:00.591Z,20.3
2022-08-27T19:30:00.682Z,20.3
2022-08-27T19:33:00.625Z,20.3
2022-08-27T19:36:00.674Z,20.2
2022-08-27T19:39:00.657Z,20.2
2022-08-27T19:42:00.675Z,20.2
2022-08-27T19:45:00.596Z,20.2
2022-08-27T19:48:00.741Z,20.2
2022-08-27T19:51:00.669Z,20.2
2022-08-27T19:54:00.662Z,20.2
2022-08-27T19:57:01.224Z,20.2
2022-08-27T20:00:00.726Z,20.2
2022-08-27T20:03:00.655Z,20.2
2022-08-27T20:06:00.685Z,20.2
2022-08-27T20:09:00.661Z,20.2
2022-08-27T20:12:00.673Z,19.8
2022-08-27T20:15:00.653Z,19.8
2022-08-27T20:18:00.645Z,19.8
2022-08-27T20:21:06.223Z,19.8
2022-08-27T20:24:00.652Z,19.8
2022-08-27T20:27:00.677Z,19.6
2022-08-27T20:30:00.633Z,19.6
2022-08-27T20:33:00.673Z,19.6
2022-08-27T20:36:00.741Z,19.6
2022-08-27T20:39:00.674Z,19.4
2022-08-27T20:42:00.820Z,19.4
2022-08-27T20:45:00.879Z,19.4
2022-08-27T20:48:00.678Z,19.4
2022-08-27T20:51:00.636Z,19.4
2022-08-27T20:54:00.716Z,19.4
2022-08-27T20:57:00.747Z,19.4
2022-08-27T21:00:00.706Z,18.9
2022-08-27T21:03:00.656Z,18.9
2022-08-27T21:06:00.637Z,18.9
2022-08-27T21:09:01.024Z,18.9
2022-08-27T21:12:00.671Z,18.9
2022-08-27T21:15:00.617Z,18.9
2022-08-27T21:18:00.637Z,18.6
2022-08-27T21:21:00.631Z,18.6
2022-08-27T21:24:00.670Z,18.6
2022-08-27T21:27:00.660Z,18.6
2022-08-27T21:30:00.715Z,18.4
2022-08-27T21:33:00.671Z,18.4
2022-08-27T21:36:00.668Z,18.4
2022-08-27T21:39:00.677Z,18.4
2022-08-27T21:42:00.743Z,18.4
2022-08-27T21:45:00.644Z,18.4
2022-08-27T21:48:00.682Z,18.4
2022-08-27T21:51:00.678Z,18.4
2022-08-27T21:54:00.619Z,18.4
2022-08-27T21:57:00.641Z,18.4
2022-08-27T22:00:01.718Z,18.4
2022-08-27T22:03:00.814Z,18.4
2022-08-27T22:06:00.644Z,18.4
2022-08-27T22:09:00.615Z,18.4
2022-08-27T22:12:00.627Z,18.1
2022-08-27T22:15:00.653Z,18.1
2022-08-27T22:18:00.629Z,18.1
2022-08-27T22:21:00.699Z,18.1
2022-08-27T22:24:00.616Z,18.1
2022-08-27T22:27:00.600Z,18.1
2022-08-27T22:30:00.665Z,18.1
2022-08-27T22:33:00.637Z,18.1
2022-08-27T22:36:00.647Z,18.1
2022-08-27T22:39:04.121Z,18.1
2022-08-27T22:42:00.648Z,18.1
2022-08-27T22:45:00.634Z,18.1
2022-08-27T22:48:00.654Z,18.1
2022-08-27T22:51:00.622Z,18.1
2022-08-27T22:54:00.611Z,18.1
2022-08-27T22:57:00.795Z,18.1
2022-08-27T23:00:00.674Z,18.1
2022-08-27T23:03:00.625Z,18.1
2022-08-27T23:06:00.811Z,17.5
2022-08-27T23:09:00.667Z,17.5
2022-08-27T23:12:00.621Z,17.5
2022-08-27T23:15:00.696Z,17.5
2022-08-27T23:18:00.632Z,17.5
2022-08-27T23:21:00.621Z,17.5
2022-08-27T23:24:00.625Z,17.5
2022-08-27T23:27:00.638Z,17.5
2022-08-27T23:30:00.668Z,17.5
2022-08-27T23:33:00.688Z,17.5
2022-08-27T23:36:00.594Z,17
2022-08-27T23:39:00.705Z,17
2022-08-27T23:42:00.640Z,17
2022-08-27T23:45:00.630Z,17
2022-08-27T23:48:00.620Z,17
2022-08-27T23:51:00.645Z,17
2022-08-27T23:54:00.661Z,17
2022-08-27T23:57:00.648Z,17
